Time;durP1;ratioP1;P1;durP2;ratioP2;P2;SDS_P1;SDS_P2;PMS_P1;PMS_P2;Temp;Humidity;BMP_temperature;BMP_pressure;BME280_temperature;BME280_humidity;BME280_pressure;Samples;Min_cycle;Max_cycle;Signal;HPM_P1;HPM_P2
2023/09/29 00:02:16;;;;;;;12.38;3.38;;;;;;;15.65;100.00;100787.13;5093747;28;20059;-76
2023/09/29 00:05:19;;;;;;;14.73;4.50;;;;;;;15.70;99.55;100779.78;5094236;28;20453;-76
2023/09/29 00:08:22;;;;;;;6.68;3.30;;;;;;;15.71;99.39;100792.84;5093862;28;20564;-76
2023/09/29 00:11:27;;;;;;;8.10;3.00;;;;;;;15.69;99.22;100793.88;5093603;28;20110;-76
2023/09/29 00:14:30;;;;;;;8.60;3.13;;;;;;;15.70;98.94;100800.88;5093897;28;20081;-76
2023/09/29 00:17:33;;;;;;;5.20;3.30;;;;;;;15.56;99.90;100807.88;5093932;28;20105;-76
2023/09/29 00:20:37;;;;;;;11.63;3.53;;;;;;;15.62;100.00;100817.16;5093581;28;20051;-76
2023/09/29 00:23:40;;;;;;;12.70;4.30;;;;;;;15.70;100.00;100811.41;5094171;28;20135;-76
2023/09/29 00:26:43;;;;;;;8.45;4.35;;;;;;;15.75;99.80;100812.75;5093846;28;20105;-77
2023/09/29 00:29:47;;;;;;;15.43;4.20;;;;;;;15.73;100.00;100817.31;5093786;28;20039;-77
2023/09/29 00:32:53;;;;;;;10.52;4.80;;;;;;;15.69;100.00;100825.53;5093532;28;20093;-77
2023/09/29 00:35:59;;;;;;;13.00;3.75;;;;;;;15.63;100.00;100821.47;5093701;28;20070;-77
2023/09/29 00:39:04;;;;;;;5.13;3.70;;;;;;;15.56;100.00;100828.97;5093608;28;20062;-77
2023/09/29 00:42:08;;;;;;;9.73;4.32;;;;;;;15.52;100.00;100816.13;5093178;28;20043;-77
2023/09/29 00:45:12;;;;;;;10.73;4.47;;;;;;;15.53;100.00;100818.63;5093497;28;20079;-77
2023/09/29 00:48:15;;;;;;;9.85;5.07;;;;;;;15.56;100.00;100817.56;5093579;28;20097;-77
2023/09/29 00:51:21;;;;;;;18.23;4.68;;;;;;;15.49;100.00;100803.16;5093352;28;20403;-76
2023/09/29 00:54:24;;;;;;;9.57;4.82;;;;;;;15.39;100.00;100802.09;5080507;28;20047;-76
2023/09/29 00:57:28;;;;;;;9.32;4.85;;;;;;;15.40;100.00;100814.31;5069349;28;20113;-76
2023/09/29 01:00:32;;;;;;;7.90;4.72;;;;;;;15.38;100.00;100809.16;5093219;28;20127;-76
2023/09/29 01:03:36;;;;;;;8.80;4.93;;;;;;;15.28;100.00;100806.31;5080372;28;20046;-77
2023/09/29 01:06:39;;;;;;;9.70;4.88;;;;;;;15.32;100.00;100809.56;5092977;28;20129;-76
2023/09/29 01:09:42;;;;;;;11.88;5.28;;;;;;;15.25;100.00;100803.88;5092599;28;20055;-76
2023/09/29 01:12:45;;;;;;;10.77;4.72;;;;;;;15.27;100.00;100791.41;5093008;28;20675;-76
2023/09/29 01:15:49;;;;;;;8.60;4.80;;;;;;;15.33;100.00;100791.00;5092149;28;20089;-76
2023/09/29 01:18:53;;;;;;;11.18;4.47;;;;;;;15.37;100.00;100790.81;5092741;28;20083;-76
2023/09/29 01:21:56;;;;;;;11.38;5.05;;;;;;;15.39;100.00;100797.66;5092583;28;20043;-77
2023/09/29 01:25:00;;;;;;;9.80;5.13;;;;;;;15.39;100.00;100788.91;5092806;28;20556;-77
2023/09/29 01:28:05;;;;;;;7.05;4.50;;;;;;;15.39;100.00;100787.13;5092522;28;20126;-77
2023/09/29 01:31:08;;;;;;;13.65;5.18;;;;;;;15.45;100.00;100791.97;5092567;28;20092;-77
2023/09/29 01:34:12;;;;;;;10.23;4.30;;;;;;;15.48;100.00;100789.13;5068647;28;20047;-77
2023/09/29 01:37:18;;;;;;;14.85;4.80;;;;;;;15.47;100.00;100799.75;5079878;28;20042;-77
2023/09/29 01:40:22;;;;;;;6.65;4.50;;;;;;;15.49;100.00;100798.72;5079727;28;20047;-77
2023/09/29 01:43:26;;;;;;;10.82;4.47;;;;;;;15.45;100.00;100797.25;5091140;28;20552;-77
2023/09/29 01:46:30;;;;;;;8.40;4.22;;;;;;;15.48;100.00;100797.03;5091994;28;20047;-77
2023/09/29 01:49:33;;;;;;;7.40;3.83;;;;;;;15.49;100.00;100795.25;5080088;28;20059;-77
2023/09/29 01:52:37;;;;;;;8.18;3.83;;;;;;;15.49;100.00;100801.34;5079796;28;20101;-77
2023/09/29 01:55:40;;;;;;;5.15;3.80;;;;;;;15.48;100.00;100802.31;5079877;28;20509;-77
2023/09/29 01:58:44;;;;;;;6.03;3.40;;;;;;;15.46;100.00;100798.91;5080013;28;20047;-76
2023/09/29 02:01:48;;;;;;;7.53;3.75;;;;;;;15.50;100.00;100797.75;5080018;28;20122;-77
2023/09/29 02:04:55;;;;;;;10.80;3.90;;;;;;;15.44;100.00;100790.25;5079818;28;20047;-77
2023/09/29 02:08:03;;;;;;;8.73;4.15;;;;;;;15.39;100.00;100797.66;5092247;28;20400;-77
2023/09/29 02:11:08;;;;;;;7.70;3.60;;;;;;;15.41;100.00;100794.91;5092196;28;20039;-77
2023/09/29 02:14:11;;;;;;;5.95;3.45;;;;;;;15.42;100.00;100791.34;5092359;28;20059;-77
2023/09/29 02:17:18;;;;;;;8.73;3.47;;;;;;;15.42;100.00;100784.28;5091607;28;20082;-76
2023/09/29 02:20:25;;;;;;;7.10;4.40;;;;;;;15.43;100.00;100788.59;5079520;28;20063;-76
2023/09/29 02:23:28;;;;;;;7.88;3.80;;;;;;;15.43;100.00;100790.38;5078888;28;20100;-76
2023/09/29 02:26:32;;;;;;;6.38;3.25;;;;;;;15.41;100.00;100789.63;5079686;28;20094;-77
2023/09/29 02:29:35;;;;;;;7.85;3.35;;;;;;;15.42;100.00;100779.00;5067782;28;20120;-77
2023/09/29 02:32:41;;;;;;;6.20;2.88;;;;;;;15.38;100.00;100777.53;5079426;28;20514;-77
2023/09/29 02:35:45;;;;;;;7.90;3.03;;;;;;;15.39;100.00;100781.00;5092418;28;20054;-77
2023/09/29 02:38:48;;;;;;;5.18;3.08;;;;;;;15.35;100.00;100778.59;5092052;28;20047;-77
2023/09/29 02:41:51;;;;;;;6.10;3.05;;;;;;;15.38;100.00;100774.03;5092082;28;20062;-77
2023/09/29 02:44:55;;;;;;;9.65;3.95;;;;;;;15.34;100.00;100774.25;5079678;28;20047;-77
2023/09/29 02:47:59;;;;;;;5.88;3.13;;;;;;;15.33;100.00;100771.72;5092082;28;20055;-77
2023/09/29 02:51:03;;;;;;;9.75;3.47;;;;;;;15.27;100.00;100764.25;5091161;28;20403;-77
2023/09/29 02:54:10;;;;;;;8.52;3.50;;;;;;;15.28;100.00;100771.19;5079405;28;20042;-77
2023/09/29 02:57:14;;;;;;;6.30;2.70;;;;;;;15.39;100.00;100765.19;5095615;28;20089;-76
2023/09/29 03:00:21;;;;;;;6.20;3.80;;;;;;;15.45;100.00;100765.63;5095457;28;20098;-76
2023/09/29 03:03:26;;;;;;;6.40;3.13;;;;;;;15.45;100.00;100764.78;5095427;28;20058;-77
2023/09/29 03:06:29;;;;;;;7.28;3.42;;;;;;;15.45;100.00;100764.78;5082785;28;20039;-76
2023/09/29 03:09:33;;;;;;;5.70;3.53;;;;;;;15.43;100.00;100764.03;5082646;28;20078;-77
2023/09/29 03:12:37;;;;;;;8.40;3.60;;;;;;;15.43;100.00;100761.41;5095323;28;20121;-76
2023/09/29 03:15:41;;;;;;;7.22;3.40;;;;;;;15.42;100.00;100763.19;5066071;28;20043;-77
2023/09/29 03:18:46;;;;;;;8.25;3.28;;;;;;;15.43;100.00;100764.03;5062622;28;20039;-77
2023/09/29 03:21:50;;;;;;;6.80;3.45;;;;;;;15.38;100.00;100759.09;5074964;28;20043;-77
2023/09/29 03:24:53;;;;;;;7.03;3.78;;;;;;;15.38;100.00;100760.84;5062427;28;20070;-77
2023/09/29 03:27:59;;;;;;;8.40;3.53;;;;;;;15.36;100.00;100763.63;5074840;28;20098;-77
2023/09/29 03:31:09;;;;;;;8.55;3.55;;;;;;;15.34;100.00;100768.13;5074707;28;20549;-78
2023/09/29 03:34:14;;;;;;;6.45;3.72;;;;;;;15.34;100.00;100770.78;5074711;28;20186;-77
2023/09/29 03:37:19;;;;;;;8.10;3.83;;;;;;;15.31;100.00;100769.19;5074774;28;20105;-78
2023/09/29 03:40:22;;;;;;;5.82;3.13;;;;;;;15.26;100.00;100771.31;5074329;28;20454;-74
2023/09/29 03:43:25;;;;;;;7.40;3.47;;;;;;;15.31;100.00;100773.63;5074334;28;20086;-76
2023/09/29 03:46:29;;;;;;;5.55;2.80;;;;;;;15.32;100.00;100773.53;5074336;28;20416;-74
2023/09/29 03:49:35;;;;;;;8.35;3.40;;;;;;;15.29;100.00;100771.09;5074218;28;20043;-73
2023/09/29 03:52:39;;;;;;;8.25;3.28;;;;;;;15.27;100.00;100764.25;5074129;28;20083;-73
2023/09/29 03:55:42;;;;;;;7.18;3.58;;;;;;;15.25;100.00;100768.75;5073993;28;20051;-73
2023/09/29 03:58:46;;;;;;;7.85;3.38;;;;;;;15.14;100.00;100769.50;5074371;28;20519;-73
2023/09/29 04:01:49;;;;;;;6.25;3.30;;;;;;;15.21;100.00;100767.28;5074047;28;20046;-75
2023/09/29 04:04:52;;;;;;;8.65;3.13;;;;;;;15.21;100.00;100762.00;5073907;28;20051;-74
2023/09/29 04:07:56;;;;;;;5.85;3.10;;;;;;;15.21;100.00;100757.59;5073136;28;20102;-75
2023/09/29 04:10:59;;;;;;;6.90;2.90;;;;;;;15.22;100.00;100766.31;5074089;28;20093;-73
2023/09/29 04:14:02;;;;;;;6.60;2.65;;;;;;;15.20;100.00;100765.59;5074060;28;20145;-78
2023/09/29 04:17:06;;;;;;;5.95;3.22;;;;;;;15.24;100.00;100762.66;5073742;28;20527;-74
2023/09/29 04:20:10;;;;;;;6.28;2.90;;;;;;;15.30;100.00;100766.66;5073746;28;20048;-74
2023/09/29 04:23:14;;;;;;;7.13;3.17;;;;;;;15.26;100.00;100754.66;5073539;28;20048;-74
2023/09/29 04:26:19;;;;;;;6.55;3.10;;;;;;;15.20;100.00;100749.81;5073560;28;20526;-74
2023/09/29 04:29:23;;;;;;;4.22;2.92;;;;;;;15.21;100.00;100754.94;5073750;28;20122;-75
2023/09/29 04:32:26;;;;;;;5.32;3.15;;;;;;;15.22;100.00;100747.88;5073704;28;20397;-74
2023/09/29 04:35:29;;;;;;;7.63;3.72;;;;;;;15.15;100.00;100742.19;5073255;28;20063;-75
2023/09/29 04:38:33;;;;;;;5.43;3.22;;;;;;;15.19;100.00;100737.56;5073280;28;20070;-78
2023/09/29 04:41:39;;;;;;;5.97;2.95;;;;;;;15.23;100.00;100749.59;5072996;28;20055;-62
2023/09/29 04:44:42;;;;;;;8.27;3.42;;;;;;;15.23;100.00;100741.69;5073043;28;20510;-61
2023/09/29 04:47:46;;;;;;;9.02;3.50;;;;;;;15.17;100.00;100745.59;5073018;28;20097;-76
2023/09/29 04:50:50;;;;;;;7.57;2.80;;;;;;;15.20;100.00;100741.91;5073398;28;20050;-76
2023/09/29 04:53:53;;;;;;;16.33;3.35;;;;;;;15.19;100.00;100748.09;5073043;28;20455;-76
2023/09/29 04:56:57;;;;;;;6.00;2.92;;;;;;;15.17;100.00;100750.00;5073150;28;20044;-76
2023/09/29 05:00:00;;;;;;;5.18;2.75;;;;;;;15.14;100.00;100748.41;5072907;28;20043;-76
2023/09/29 05:03:04;;;;;;;9.55;3.17;;;;;;;15.18;100.00;100734.09;5072884;28;20039;-75
2023/09/29 05:06:07;;;;;;;7.70;2.85;;;;;;;15.18;100.00;100743.78;5060496;28;20075;-75
2023/09/29 05:10:02;;;;;;;5.28;2.75;;;;;;;15.19;100.00;100748.09;5071248;28;20420;-85
2023/09/29 05:13:07;;;;;;;11.02;2.85;;;;;;;15.16;100.00;100754.44;5073182;28;20101;-83
2023/09/29 05:19:58;;;;;;;5.15;2.50;;;;;;;15.16;100.00;100756.25;5063972;28;20039;-83
2023/09/29 05:23:02;;;;;;;6.95;3.22;;;;;;;15.13;100.00;100748.53;5072877;28;20079;-83
2023/09/29 05:26:09;;;;;;;10.30;3.22;;;;;;;15.11;100.00;100746.84;5060370;28;20058;-83
2023/09/29 05:29:16;;;;;;;5.35;2.85;;;;;;;15.08;100.00;100739.13;5072917;28;20047;-83
2023/09/29 05:32:20;;;;;;;4.63;2.70;;;;;;;15.09;100.00;100740.84;5072082;28;20036;-83
2023/09/29 05:35:28;;;;;;;5.43;3.00;;;;;;;15.16;100.00;100748.34;5059638;28;20286;-86
2023/09/29 05:39:04;;;;;;;6.72;3.03;;;;;;;15.11;100.00;100744.19;5071913;28;20400;-87
2023/09/29 05:42:21;;;;;;;5.65;3.10;;;;;;;15.13;100.00;100733.56;5071720;28;20109;-84
2023/09/29 05:45:26;;;;;;;4.57;2.72;;;;;;;15.21;100.00;100719.88;5047503;28;20090;-72
2023/09/29 05:48:31;;;;;;;6.65;2.90;;;;;;;15.21;100.00;100722.50;5071732;28;20138;-82
2023/09/29 05:51:39;;;;;;;6.80;2.88;;;;;;;15.22;100.00;100718.91;5057869;28;20066;-84
2023/09/29 05:55:33;;;;;;;5.30;2.90;;;;;;;15.21;100.00;100730.41;5071237;28;20526;-86
2023/09/29 05:58:36;;;;;;;8.48;3.25;;;;;;;15.22;100.00;100745.25;5071608;28;20447;-76
2023/09/29 06:02:12;;;;;;;5.65;2.88;;;;;;;15.28;100.00;100736.94;5071252;28;20051;-86
2023/09/29 06:06:09;;;;;;;6.53;3.13;;;;;;;15.33;100.00;100745.38;5071063;28;20044;-73
2023/09/29 06:09:37;;;;;;;7.28;3.25;;;;;;;15.30;100.00;100745.59;5066866;28;20079;-89
2023/09/29 06:12:53;;;;;;;10.02;3.63;;;;;;;15.28;100.00;100747.47;5071783;28;20040;-83
2023/09/29 06:15:58;;;;;;;7.50;2.90;;;;;;;15.27;100.00;100741.38;5048780;28;20062;-79
2023/09/29 06:19:03;;;;;;;5.80;3.30;;;;;;;15.34;100.00;100745.25;5071048;28;20119;-84
2023/09/29 06:22:42;;;;;;;6.90;3.00;;;;;;;15.34;100.00;100737.34;5071097;28;20067;-85
2023/09/29 06:26:01;;;;;;;5.68;2.88;;;;;;;15.44;100.00;100752.53;5058826;28;20051;-79
2023/09/29 06:29:06;;;;;;;8.57;3.97;;;;;;;15.43;100.00;100756.97;5071387;28;20507;-80
2023/09/29 06:32:09;;;;;;;5.38;3.10;;;;;;;15.49;100.00;100739.91;5074850;28;20409;-80
2023/09/29 06:35:14;;;;;;;7.75;3.35;;;;;;;15.51;100.00;100732.75;5074699;28;20090;-80
2023/09/29 06:38:18;;;;;;;5.20;3.22;;;;;;;15.49;100.00;100724.09;5074970;28;20055;-80
2023/09/29 06:41:21;;;;;;;7.57;2.92;;;;;;;15.52;100.00;100714.16;5074601;28;20437;-81
2023/09/29 06:44:25;;;;;;;7.22;3.42;;;;;;;15.50;100.00;100713.41;5074570;28;20523;-81
2023/09/29 06:47:28;;;;;;;6.90;2.65;;;;;;;15.52;100.00;100713.34;5074268;28;20143;-81
2023/09/29 06:50:31;;;;;;;7.45;3.30;;;;;;;15.49;100.00;100722.28;5074456;28;20116;-81
2023/09/29 06:53:35;;;;;;;6.10;3.05;;;;;;;15.52;100.00;100716.81;5074439;28;20047;-80
2023/09/29 06:56:38;;;;;;;6.13;3.97;;;;;;;15.44;100.00;100711.22;5074310;28;20094;-79
2023/09/29 06:59:42;;;;;;;5.53;3.15;;;;;;;15.47;100.00;100711.00;5075076;28;20047;-81
2023/09/29 07:02:46;;;;;;;4.28;2.72;;;;;;;15.29;100.00;100715.78;5073820;28;20174;-71
2023/09/29 07:05:50;;;;;;;9.05;3.47;;;;;;;15.36;100.00;100716.19;5074126;28;20063;-63
2023/09/29 07:08:53;;;;;;;6.90;3.60;;;;;;;15.52;100.00;100714.16;5072561;28;20133;-63
2023/09/29 07:11:57;;;;;;;6.63;3.78;;;;;;;15.59;100.00;100704.88;5072901;28;20513;-63
2023/09/29 07:15:00;;;;;;;8.57;3.60;;;;;;;15.76;100.00;100706.38;5073053;28;20132;-62
2023/09/29 07:18:04;;;;;;;10.02;3.60;;;;;;;15.95;100.00;100710.31;5073034;28;20051;-63
2023/09/29 07:21:07;;;;;;;6.20;3.40;;;;;;;15.94;100.00;100714.75;5060740;28;20048;-63
2023/09/29 07:24:10;;;;;;;6.40;3.45;;;;;;;16.06;100.00;100712.19;5073757;28;20675;-62
2023/09/29 07:27:13;;;;;;;11.30;3.53;;;;;;;16.27;100.00;100715.88;5073520;28;20043;-60
2023/09/29 07:30:17;;;;;;;7.28;3.78;;;;;;;16.37;100.00;100714.28;5073237;28;20098;-61
2023/09/29 07:33:20;;;;;;;5.22;3.15;;;;;;;16.47;100.00;100712.66;5073210;28;20464;-61
2023/09/29 07:36:23;;;;;;;5.72;3.67;;;;;;;16.56;100.00;100715.53;5060825;28;20185;-62
2023/09/29 07:39:26;;;;;;;6.18;4.05;;;;;;;16.60;100.00;100717.00;5073211;28;20098;-63
2023/09/29 07:42:30;;;;;;;4.95;4.18;;;;;;;16.70;100.00;100710.09;5072313;28;20093;-61
2023/09/29 07:45:33;;;;;;;7.00;4.03;;;;;;;16.84;100.00;100715.19;5073107;28;20043;-61
2023/09/29 07:48:36;;;;;;;7.28;4.30;;;;;;;17.02;100.00;100712.13;5060935;28;20051;-66
2023/09/29 07:51:40;;;;;;;8.70;4.55;;;;;;;17.19;100.00;100720.44;5060703;28;20093;-63
2023/09/29 07:54:44;;;;;;;9.25;4.63;;;;;;;17.36;100.00;100715.66;5072810;28;20523;-63
2023/09/29 07:57:47;;;;;;;10.30;4.93;;;;;;;17.46;100.00;100721.06;5072915;28;20048;-62
2023/09/29 08:00:51;;;;;;;8.10;4.65;;;;;;;17.58;100.00;100726.25;5072958;28;20043;-63
2023/09/29 08:03:54;;;;;;;10.52;5.00;;;;;;;17.72;100.00;100727.78;5073183;28;20139;-63
2023/09/29 08:06:57;;;;;;;8.48;4.55;;;;;;;17.74;99.72;100725.88;5072964;28;20075;-62
2023/09/29 08:10:01;;;;;;;10.23;4.60;;;;;;;17.83;100.00;100721.66;5072389;28;20034;-62
2023/09/29 08:13:04;;;;;;;6.10;3.85;;;;;;;17.94;100.00;100715.53;5072802;28;20051;-63
2023/09/29 08:16:07;;;;;;;7.68;4.10;;;;;;;18.02;100.00;100713.09;5072589;28;20113;-63
2023/09/29 08:19:10;;;;;;;7.88;3.90;;;;;;;18.08;100.00;100707.31;5072599;28;20463;-63
2023/09/29 08:22:14;;;;;;;10.73;4.40;;;;;;;18.19;99.42;100709.09;5071502;28;20051;-63
2023/09/29 08:25:20;;;;;;;9.35;3.92;;;;;;;18.29;98.42;100700.28;5060599;28;20119;-63
2023/09/29 08:28:24;;;;;;;7.57;4.35;;;;;;;18.37;98.18;100694.34;5072904;28;20114;-63
2023/09/29 08:31:28;;;;;;;9.00;4.88;;;;;;;18.42;97.20;100704.59;5071602;28;20040;-61
2023/09/29 08:34:34;;;;;;;5.68;3.67;;;;;;;18.46;97.05;100695.41;5071102;28;20124;-62
2023/09/29 08:37:37;;;;;;;8.90;3.90;;;;;;;18.51;96.74;100706.47;5072044;28;20044;-61
2023/09/29 08:40:46;;;;;;;14.32;3.83;;;;;;;18.54;98.97;100703.56;5059571;28;20117;-62
2023/09/29 08:44:21;;;;;;;10.32;3.80;;;;;;;18.57;98.71;100703.31;5073228;28;20090;-63
2023/09/29 08:47:28;;;;;;;9.27;4.10;;;;;;;18.67;97.71;100700.75;5059576;28;20106;-63
2023/09/29 08:50:32;;;;;;;6.18;3.38;;;;;;;18.75;98.24;100696.50;5072076;28;20075;-63
2023/09/29 08:53:36;;;;;;;9.68;3.97;;;;;;;18.82;96.95;100686.22;5071588;28;20116;-63
2023/09/29 08:56:39;;;;;;;10.60;4.35;;;;;;;18.90;97.10;100688.25;5071881;28;20490;-63
2023/09/29 08:59:43;;;;;;;6.88;4.03;;;;;;;18.91;96.21;100690.75;5071605;28;20078;-62
2023/09/29 09:02:47;;;;;;;6.93;3.85;;;;;;;18.92;96.90;100686.28;5071800;28;20170;-66
2023/09/29 09:05:50;;;;;;;8.48;4.28;;;;;;;18.95;97.27;100699.28;5071655;28;20193;-62
2023/09/29 09:08:56;;;;;;;7.05;3.97;;;;;;;18.94;98.69;100694.94;5071680;28;20043;-62
2023/09/29 09:12:00;;;;;;;13.27;5.38;;;;;;;18.87;99.03;100699.09;5071397;28;20051;-62
2023/09/29 09:15:04;;;;;;;7.85;4.07;;;;;;;18.87;100.00;100691.16;5071503;28;20040;-62
2023/09/29 09:18:09;;;;;;;7.72;4.10;;;;;;;18.89;100.00;100683.91;5059595;28;20047;-62
2023/09/29 09:21:16;;;;;;;7.57;4.35;;;;;;;18.97;99.90;100678.78;5071621;28;20504;-62
2023/09/29 09:24:22;;;;;;;10.18;4.47;;;;;;;19.17;100.00;100677.91;5059170;28;20111;-62
2023/09/29 09:27:26;;;;;;;8.15;3.75;;;;;;;19.36;97.97;100668.38;5059115;28;20046;-62
2023/09/29 09:30:36;;;;;;;14.13;4.40;;;;;;;19.56;97.43;100672.81;5071560;28;20039;-63
2023/09/29 09:33:39;;;;;;;8.73;4.18;;;;;;;19.65;96.92;100672.00;5071457;28;20118;-62
2023/09/29 09:36:52;;;;;;;11.25;3.83;;;;;;;19.78;97.06;100678.88;5071341;28;20043;-62
2023/09/29 09:39:56;;;;;;;8.07;4.50;;;;;;;19.69;98.80;100684.03;5071041;28;20116;-62
2023/09/29 09:43:05;;;;;;;8.38;4.00;;;;;;;19.78;96.70;100681.53;5071218;28;20102;-62
2023/09/29 09:46:11;;;;;;;14.10;4.03;;;;;;;19.81;95.16;100678.59;5071513;28;20144;-62
2023/09/29 09:49:30;;;;;;;13.02;4.43;;;;;;;19.83;96.22;100680.16;5071327;28;20039;-80
2023/09/29 09:52:34;;;;;;;8.38;3.75;;;;;;;19.86;98.41;100690.50;5070281;28;20566;-80
2023/09/29 09:55:41;;;;;;;9.43;3.80;;;;;;;19.91;96.53;100698.03;5070435;28;20067;-80
2023/09/29 09:58:48;;;;;;;14.00;4.40;;;;;;;19.96;93.53;100695.81;5071218;28;20087;-80
2023/09/29 10:01:52;;;;;;;6.95;3.75;;;;;;;20.20;94.88;100698.13;5058718;28;20043;-80
2023/09/29 10:04:55;;;;;;;5.68;3.53;;;;;;;20.35;93.84;100703.84;5071626;28;20136;-80
2023/09/29 10:08:02;;;;;;;6.97;4.47;;;;;;;20.38;93.76;100700.91;5075596;28;20083;-79
2023/09/29 10:11:15;;;;;;;5.97;4.25;;;;;;;20.44;93.60;100687.06;5075179;28;20512;-79
2023/09/29 10:14:18;;;;;;;10.60;4.03;;;;;;;20.50;94.27;100689.16;5075228;28;20196;-79
2023/09/29 10:17:22;;;;;;;11.02;3.58;;;;;;;20.59;94.99;100691.00;5075065;28;20510;-80
2023/09/29 10:20:29;;;;;;;5.70;3.38;;;;;;;20.63;95.36;100684.44;5074896;28;20399;-80
2023/09/29 10:23:45;;;;;;;8.85;3.78;;;;;;;20.59;96.48;100675.06;5074922;28;20067;-80
2023/09/29 10:26:49;;;;;;;8.18;4.22;;;;;;;20.56;99.00;100675.34;5074815;28;20562;-80
2023/09/29 10:30:16;;;;;;;10.07;4.40;;;;;;;20.67;99.40;100669.88;5074844;28;20409;-80
2023/09/29 10:33:19;;;;;;;15.88;3.95;;;;;;;20.98;97.54;100668.84;5074588;28;20047;-79
2023/09/29 10:36:25;;;;;;;7.65;4.00;;;;;;;21.25;89.28;100670.72;5074756;28;20094;-79
2023/09/29 10:39:29;;;;;;;8.63;3.63;;;;;;;21.41;83.96;100668.31;5074519;28;20067;-79
2023/09/29 10:42:38;;;;;;;9.68;3.85;;;;;;;21.63;87.72;100660.91;5074601;28;20075;-79
2023/09/29 10:45:41;;;;;;;7.68;3.47;;;;;;;21.66;81.34;100656.13;5074683;28;20478;-80
2023/09/29 10:48:45;;;;;;;8.18;3.35;;;;;;;21.82;77.69;100655.47;5074443;28;20087;-80
2023/09/29 10:51:49;;;;;;;5.80;3.00;;;;;;;21.96;75.93;100649.66;5074314;28;20127;-80
2023/09/29 10:54:56;;;;;;;6.05;2.88;;;;;;;21.86;76.43;100654.22;5061891;28;20573;-80
2023/09/29 10:58:00;;;;;;;8.02;3.53;;;;;;;22.01;79.42;100646.53;5061919;28;20101;-80
2023/09/29 11:01:03;;;;;;;6.57;2.78;;;;;;;22.18;75.58;100636.91;5074252;28;20047;-79
2023/09/29 11:04:09;;;;;;;7.72;2.90;;;;;;;22.35;75.04;100630.72;5074394;28;20047;-79
2023/09/29 11:07:17;;;;;;;8.20;3.28;;;;;;;22.49;73.13;100635.53;5074027;28;20408;-79
2023/09/29 11:10:20;;;;;;;4.57;2.80;;;;;;;22.70;72.19;100631.66;5073847;28;20098;-80
2023/09/29 11:13:25;;;;;;;7.40;3.17;;;;;;;22.93;69.91;100632.81;5073834;28;20067;-62
2023/09/29 11:16:28;;;;;;;5.78;3.17;;;;;;;22.81;70.65;100644.72;5073442;28;20097;-63
2023/09/29 11:19:31;;;;;;;5.85;3.00;;;;;;;22.72;69.98;100637.69;5073325;28;20135;-62
2023/09/29 11:22:36;;;;;;;8.98;3.10;;;;;;;22.57;70.59;100650.72;5072252;28;20535;-63
2023/09/29 11:25:54;;;;;;;3.95;2.38;;;;;;;22.91;66.38;100655.28;5072886;28;20170;-62
2023/09/29 11:28:58;;;;;;;7.65;2.50;;;;;;;22.92;65.29;100665.78;5073292;28;20086;-63
2023/09/29 11:32:01;;;;;;;5.88;2.40;;;;;;;22.78;64.94;100669.00;5073211;28;20060;-62
2023/09/29 11:35:13;;;;;;;5.03;2.20;;;;;;;22.70;65.77;100671.63;5073419;28;20075;-62
2023/09/29 11:38:19;;;;;;;6.63;2.10;;;;;;;22.77;64.64;100683.34;5073472;28;20055;-63
2023/09/29 11:41:23;;;;;;;6.10;2.08;;;;;;;22.83;64.67;100684.56;5073069;28;20106;-63
2023/09/29 11:44:26;;;;;;;6.75;2.58;;;;;;;22.70;65.24;100693.78;5073208;28;20059;-63
2023/09/29 11:47:30;;;;;;;6.60;2.60;;;;;;;22.61;66.08;100717.88;5073241;28;20127;-63
2023/09/29 11:50:34;;;;;;;6.57;1.90;;;;;;;22.38;67.00;100722.84;5072966;28;20106;-62
2023/09/29 11:53:43;;;;;;;4.60;2.60;;;;;;;22.13;67.58;100745.69;5072889;28;20063;-62
2023/09/29 11:56:46;;;;;;;12.10;2.88;;;;;;;21.96;68.09;100742.84;5072804;28;20117;-62
2023/09/29 11:59:49;;;;;;;7.93;2.70;;;;;;;21.80;69.37;100747.97;5072753;28;20099;-62
2023/09/29 12:02:54;;;;;;;7.15;2.67;;;;;;;21.71;69.89;100741.69;5060430;28;20044;-82
2023/09/29 12:05:58;;;;;;;4.20;2.10;;;;;;;21.68;70.21;100743.81;5073235;28;20036;-79
2023/09/29 12:09:02;;;;;;;5.72;2.50;;;;;;;21.75;69.94;100752.88;5060171;28;20129;-78
2023/09/29 12:12:06;;;;;;;3.95;2.75;;;;;;;21.78;70.11;100768.56;5072832;28;20185;-77
2023/09/29 12:15:11;;;;;;;5.57;2.40;;;;;;;21.74;70.04;100778.66;5072878;28;20043;-79
2023/09/29 12:18:15;;;;;;;4.72;2.72;;;;;;;21.78;70.46;100776.53;5059848;28;20102;-60
2023/09/29 12:21:19;;;;;;;6.70;3.72;;;;;;;21.62;70.05;100782.47;5071208;28;20105;-63
2023/09/29 12:24:23;;;;;;;9.00;3.95;;;;;;;21.54;69.92;100804.50;5072609;28;20079;-61
2023/09/29 12:27:26;;;;;;;8.48;4.05;;;;;;;21.35;68.81;100809.88;5059743;28;20136;-61
2023/09/29 12:30:30;;;;;;;10.38;4.60;;;;;;;21.44;68.46;100794.84;5072338;28;20175;-60
2023/09/29 12:33:33;;;;;;;12.98;5.03;;;;;;;21.76;65.78;100797.13;5072583;28;20098;-81
2023/09/29 12:36:37;;;;;;;9.77;5.03;;;;;;;21.88;65.60;100797.78;5072378;28;20387;-77
2023/09/29 12:39:40;;;;;;;12.32;5.10;;;;;;;21.81;64.73;100794.88;5092202;28;20047;-76
2023/09/29 12:42:51;;;;;;;11.48;5.70;;;;;;;21.71;64.94;100797.59;5092636;28;20131;-75
2023/09/29 12:45:55;;;;;;;11.60;5.80;;;;;;;21.95;63.75;100797.06;5092425;28;20101;-77
2023/09/29 12:48:59;;;;;;;9.88;5.60;;;;;;;22.55;61.66;100788.59;5092751;28;20101;-73
2023/09/29 12:52:02;;;;;;;12.23;5.90;;;;;;;22.54;61.77;100796.75;5092674;28;20181;-77
2023/09/29 12:55:09;;;;;;;11.65;6.15;;;;;;;22.76;59.61;100793.63;5092481;28;20071;-81
2023/09/29 12:58:12;;;;;;;13.10;6.30;;;;;;;23.03;59.22;100791.88;5092283;28;20115;-77
2023/09/29 13:01:16;;;;;;;12.23;6.55;;;;;;;22.82;60.31;100802.88;5092023;28;20047;-73
2023/09/29 13:04:25;;;;;;;11.43;5.75;;;;;;;23.46;59.26;100798.22;5092408;28;20498;-77
2023/09/29 13:07:28;;;;;;;13.68;6.05;;;;;;;23.27;58.49;100802.75;5092220;28;20489;-79
2023/09/29 13:10:37;;;;;;;13.65;6.50;;;;;;;23.47;58.58;100799.88;5090437;28;20071;-81
2023/09/29 13:13:40;;;;;;;13.13;7.65;;;;;;;23.50;57.19;100796.91;5073075;28;20047;-77
2023/09/29 13:16:44;;;;;;;12.30;7.20;;;;;;;24.55;54.04;100801.03;5058913;28;20088;-79
2023/09/29 13:19:47;;;;;;;13.90;7.65;;;;;;;25.59;51.02;100811.09;5071095;28;20554;-77
2023/09/29 13:22:51;;;;;;;15.93;8.18;;;;;;;24.35;54.20;100820.03;5071762;28;20458;-77
2023/09/29 13:25:54;;;;;;;18.50;10.05;;;;;;;25.00;52.40;100826.50;5070866;28;20089;-79
2023/09/29 13:28:57;;;;;;;19.83;10.52;;;;;;;27.34;46.90;100813.28;5059056;28;20050;-78
2023/09/29 13:32:02;;;;;;;16.42;10.65;;;;;;;26.57;47.18;100813.38;5071944;28;20567;-77
2023/09/29 13:35:08;;;;;;;20.90;11.60;;;;;;;26.86;46.74;100809.13;5071668;28;20089;-79
2023/09/29 13:38:15;;;;;;;17.75;11.85;;;;;;;27.24;46.04;100809.19;5071654;28;20047;-79
2023/09/29 13:41:24;;;;;;;18.33;11.60;;;;;;;26.35;47.41;100816.81;5070701;28;20051;-79
2023/09/29 13:44:55;;;;;;;17.33;11.73;;;;;;;25.79;48.72;100821.41;5071928;28;20048;-78
2023/09/29 13:47:58;;;;;;;22.17;13.00;;;;;;;24.42;51.85;100822.91;5071282;28;20393;-79
2023/09/29 13:51:11;;;;;;;19.48;13.55;;;;;;;24.83;51.87;100814.97;5071910;28;20185;-79
2023/09/29 13:54:15;;;;;;;24.00;14.90;;;;;;;24.69;51.26;100819.09;5071615;28;20535;-78
2023/09/29 13:57:20;;;;;;;24.33;15.05;;;;;;;24.58;50.91;100811.41;5071549;28;20059;-78
2023/09/29 14:00:24;;;;;;;22.95;14.32;;;;;;;24.47;51.80;100817.06;5071502;28;20047;-78
2023/09/29 14:03:30;;;;;;;26.33;14.70;;;;;;;24.79;50.70;100818.94;5071549;28;20106;-79
2023/09/29 14:06:33;;;;;;;25.02;14.55;;;;;;;25.08;49.54;100818.47;5072354;28;20043;-80
2023/09/29 14:09:44;;;;;;;23.77;14.85;;;;;;;24.32;50.94;100823.00;5071398;28;20082;-78
2023/09/29 14:12:49;;;;;;;23.53;14.47;;;;;;;24.95;49.41;100812.78;5041262;28;20445;-79
2023/09/29 14:15:53;;;;;;;23.58;13.70;;;;;;;25.19;49.13;100807.47;5031224;28;20287;-80
2023/09/29 14:18:57;;;;;;;24.95;15.05;;;;;;;26.57;46.50;100810.69;5030768;28;20119;-78